Chanhassen, MN (55317)

1:44 AM CDT on August 05, 2015 (GMT -0500)
Marsh Drive | | Change Station
CLOSE
Current Station
Personal Weather Station
Location: Chanhassen, MN
Elevation: 915 ft
Nearby Weather Stations

Elev 915 ft 44.85 °N, 93.53 °W | Updated 2 seconds ago

Clear
Clear
62.2 °F
Feels Like 62.2 °F
N
0.0
Wind Variable Wind from WSW
Gusts 0.0 mph

Today
High -- | Low -- °F
--% Chance of Precip.
Yesterday
High -- | Low -- °F
Precip. -- in
6:04 AM 8:35 PM
Waning Gibbous, 70% visible
Pressure 30.01 in
Visibility 10.0 miles
Clouds Clear
Dew Point 56 °F
Humidity 81%
Rainfall 0.00 in
Snow Depth Not available.
UV 0 out of 12
Pollen 7.50 out of 12
Air Quality Not available.
Flu Activity Not available.
METAR KFCM 050553Z AUTO 35003KT 10SM CLR 18/13 A3003 RMK AO2 SLP163 T01830133 10261 20178 402780122 51007

More Conditions Fewer Conditions

Pressure 30.01 in
Visibility 10.0 miles
Clouds Clear
Dew Point 56 °F
Humidity 81%
Rainfall 0.00 in
Snow Depth Not available.
UV 0 out of 12
Pollen 7.50 out of 12
Air Quality Not available.
Flu Activity Not available.
METAR KFCM 050553Z AUTO 35003KT 10SM CLR 18/13 A3003 RMK AO2 SLP163 T01830133 10261 20178 402780122 51007

More Conditions Fewer Conditions

10-Day Weather Forecast

×

Almanac

Astronomy

Aug. 05, 2015 Rise Set
Actual Time
Civil Twilight
Nautical Twilight
Astronomical Twilight
Moon
Length of Visible Light
Length of Day
Tomorrow will be .
, % of the Moon is Illuminated

Today's Extremes

State Highs State Lows

Community

WunderPhotos

Upload Photos

1,844,105 photos uploaded!

WunderBlogs® & News

Nearby

Air Quality

  Air Quality AQ Index Pollutant
Not available.

Snow Depth

Station Depth Elevation

Earthquake Activity

City Distance Mag. Time & Date
Minimum magnitude displayed is 2.5.

Coastal Water Temperatures

Place Temperature

Stations

Nearby Weather Stations

Station Location Temp. Windchill Dew Point Humidity Wind Precip. Elev Updated Type